sensor_id;sensor_type;location;lat;lon;timestamp;noise_LAeq;noise_LA_min;noise_LA_max;noise_LA01;noise_LA95
61321;Laerm;17737;52.586;13.284;2023-03-01T00:01:46;54.44;51.20;67.48;;
61321;Laerm;17737;52.586;13.284;2023-03-01T00:04:14;52.77;51.12;60.82;;
61321;Laerm;17737;52.586;13.284;2023-03-01T00:06:43;52.64;50.96;59.47;;
61321;Laerm;17737;52.586;13.284;2023-03-01T00:09:13;52.20;51.11;55.83;;
61321;Laerm;17737;52.586;13.284;2023-03-01T00:11:43;52.54;51.14;68.65;;
61321;Laerm;17737;52.586;13.284;2023-03-01T00:14:11;52.21;51.13;55.37;;
61321;Laerm;17737;52.586;13.284;2023-03-01T00:16:41;53.10;51.13;58.33;;
61321;Laerm;17737;52.586;13.284;2023-03-01T00:19:14;52.20;50.90;55.74;;
61321;Laerm;17737;52.586;13.284;2023-03-01T00:21:42;52.51;51.03;57.21;;
61321;Laerm;17737;52.586;13.284;2023-03-01T00:24:11;53.35;51.04;68.06;;
61321;Laerm;17737;52.586;13.284;2023-03-01T00:26:39;52.21;50.96;55.88;;
61321;Laerm;17737;52.586;13.284;2023-03-01T00:29:09;53.28;50.84;68.68;;
61321;Laerm;17737;52.586;13.284;2023-03-01T00:31:37;52.24;50.96;67.92;;
61321;Laerm;17737;52.586;13.284;2023-03-01T00:34:05;52.20;51.14;55.85;;
61321;Laerm;17737;52.586;13.284;2023-03-01T00:36:36;52.25;50.86;68.77;;
61321;Laerm;17737;52.586;13.284;2023-03-01T00:39:10;52.70;51.12;59.35;;
61321;Laerm;17737;52.586;13.284;2023-03-01T00:41:39;52.21;50.91;56.16;;
61321;Laerm;17737;52.586;13.284;2023-03-01T00:44:10;52.22;51.00;67.36;;
61321;Laerm;17737;52.586;13.284;2023-03-01T00:46:38;52.20;51.05;56.14;;
61321;Laerm;17737;52.586;13.284;2023-03-01T00:49:06;52.54;51.14;67.49;;
61321;Laerm;17737;52.586;13.284;2023-03-01T00:51:34;52.42;50.87;56.41;;
61321;Laerm;17737;52.586;13.284;2023-03-01T00:54:03;52.40;50.95;56.77;;
61321;Laerm;17737;52.586;13.284;2023-03-01T00:56:31;52.20;51.06;55.76;;
61321;Laerm;17737;52.586;13.284;2023-03-01T00:59:00;52.25;50.97;69.81;;
61321;Laerm;17737;52.586;13.284;2023-03-01T01:01:30;52.23;50.99;67.94;;
61321;Laerm;17737;52.586;13.284;2023-03-01T01:04:03;52.49;50.97;58.31;;
61321;Laerm;17737;52.586;13.284;2023-03-01T01:06:34;52.18;51.08;55.04;;
61321;Laerm;17737;52.586;13.284;2023-03-01T01:09:04;52.19;50.91;55.82;;
61321;Laerm;17737;52.586;13.284;2023-03-01T01:11:33;52.91;51.07;58.55;;
61321;Laerm;17737;52.586;13.284;2023-03-01T01:14:03;52.62;50.99;57.51;;
61321;Laerm;17737;52.586;13.284;2023-03-01T01:16:33;52.26;51.00;68.94;;
61321;Laerm;17737;52.586;13.284;2023-03-01T01:19:01;52.25;51.03;68.76;;
61321;Laerm;17737;52.586;13.284;2023-03-01T01:21:29;52.21;51.02;55.65;;
61321;Laerm;17737;52.586;13.284;2023-03-01T01:23:58;52.24;51.02;68.36;;
61321;Laerm;17737;52.586;13.284;2023-03-01T01:26:29;52.22;51.04;68.62;;
61321;Laerm;17737;52.586;13.284;2023-03-01T01:28:59;53.15;51.17;61.55;;
61321;Laerm;17737;52.586;13.284;2023-03-01T01:31:29;52.54;50.98;69.33;;
61321;Laerm;17737;52.586;13.284;2023-03-01T01:34:00;52.44;51.00;68.32;;
61321;Laerm;17737;52.586;13.284;2023-03-01T01:36:28;53.71;50.97;65.31;;
61321;Laerm;17737;52.586;13.284;2023-03-01T01:38:57;52.25;51.08;68.51;;
61321;Laerm;17737;52.586;13.284;2023-03-01T01:41:27;53.17;50.65;62.99;;
61321;Laerm;17737;52.586;13.284;2023-03-01T01:44:16;52.22;50.98;56.04;;
61321;Laerm;17737;52.586;13.284;2023-03-01T01:46:49;52.24;50.89;67.79;;
61321;Laerm;17737;52.586;13.284;2023-03-01T01:49:28;52.27;50.87;56.50;;
61321;Laerm;17737;52.586;13.284;2023-03-01T01:52:08;52.61;51.20;59.43;;
61321;Laerm;17737;52.586;13.284;2023-03-01T01:54:44;52.23;50.94;66.62;;
61321;Laerm;17737;52.586;13.284;2023-03-01T01:57:19;52.20;50.94;56.16;;
61321;Laerm;17737;52.586;13.284;2023-03-01T01:59:53;52.21;51.08;55.41;;
61321;Laerm;17737;52.586;13.284;2023-03-01T02:02:22;52.69;51.12;59.52;;
61321;Laerm;17737;52.586;13.284;2023-03-01T02:05:01;54.04;51.06;68.68;;
61321;Laerm;17737;52.586;13.284;2023-03-01T02:07:31;53.23;51.22;61.51;;
61321;Laerm;17737;52.586;13.284;2023-03-01T02:09:59;52.25;51.07;67.48;;
61321;Laerm;17737;52.586;13.284;2023-03-01T02:12:29;52.20;51.08;63.24;;
61321;Laerm;17737;52.586;13.284;2023-03-01T02:14:58;52.19;51.04;55.94;;
61321;Laerm;17737;52.586;13.284;2023-03-01T02:17:26;52.19;51.09;55.48;;
61321;Laerm;17737;52.586;13.284;2023-03-01T02:20:09;52.22;51.06;55.79;;
61321;Laerm;17737;52.586;13.284;2023-03-01T02:22:45;52.23;51.11;55.90;;
61321;Laerm;17737;52.586;13.284;2023-03-01T02:25:30;52.21;50.75;55.93;;
61321;Laerm;17737;52.586;13.284;2023-03-01T02:28:10;52.61;51.10;58.77;;
61321;Laerm;17737;52.586;13.284;2023-03-01T02:30:42;52.22;50.95;56.56;;
61321;Laerm;17737;52.586;13.284;2023-03-01T02:33:26;52.57;50.90;57.87;;
61321;Laerm;17737;52.586;13.284;2023-03-01T02:35:56;52.27;51.10;67.73;;
61321;Laerm;17737;52.586;13.284;2023-03-01T02:38:24;52.27;51.14;56.49;;
61321;Laerm;17737;52.586;13.284;2023-03-01T02:40:54;52.91;51.07;68.80;;
61321;Laerm;17737;52.586;13.284;2023-03-01T02:43:29;52.82;51.10;60.38;;
61321;Laerm;17737;52.586;13.284;2023-03-01T02:46:08;52.23;50.98;55.93;;
61321;Laerm;17737;52.586;13.284;2023-03-01T02:48:42;52.23;51.13;55.99;;
61321;Laerm;17737;52.586;13.284;2023-03-01T02:51:34;52.49;51.09;57.06;;
61321;Laerm;17737;52.586;13.284;2023-03-01T02:54:18;52.47;51.04;56.22;;
61321;Laerm;17737;52.586;13.284;2023-03-01T02:56:49;52.90;51.05;59.70;;
61321;Laerm;17737;52.586;13.284;2023-03-01T02:59:21;52.25;51.08;66.90;;
61321;Laerm;17737;52.586;13.284;2023-03-01T03:01:51;52.23;50.98;56.16;;
61321;Laerm;17737;52.586;13.284;2023-03-01T03:04:19;52.63;51.17;58.70;;
61321;Laerm;17737;52.586;13.284;2023-03-01T03:06:50;52.45;51.14;69.26;;
61321;Laerm;17737;52.586;13.284;2023-03-01T03:09:19;52.23;51.00;55.85;;
61321;Laerm;17737;52.586;13.284;2023-03-01T03:11:47;52.35;50.81;66.87;;
61321;Laerm;17737;52.586;13.284;2023-03-01T03:14:16;52.60;51.01;68.48;;
61321;Laerm;17737;52.586;13.284;2023-03-01T03:16:46;52.24;50.98;53.41;;
61321;Laerm;17737;52.586;13.284;2023-03-01T03:19:17;52.50;50.91;57.44;;
61321;Laerm;17737;52.586;13.284;2023-03-01T03:21:46;53.32;51.22;66.31;;
61321;Laerm;17737;52.586;13.284;2023-03-01T03:24:14;52.58;51.08;67.29;;
61321;Laerm;17737;52.586;13.284;2023-03-01T03:26:42;52.71;51.04;58.94;;
61321;Laerm;17737;52.586;13.284;2023-03-01T03:29:10;53.81;51.15;65.77;;
61321;Laerm;17737;52.586;13.284;2023-03-01T03:31:38;52.60;51.04;57.92;;
61321;Laerm;17737;52.586;13.284;2023-03-01T03:34:06;52.41;51.07;56.26;;
61321;Laerm;17737;52.586;13.284;2023-03-01T03:36:35;52.72;50.99;59.75;;
61321;Laerm;17737;52.586;13.284;2023-03-01T03:39:03;53.61;51.01;60.58;;
61321;Laerm;17737;52.586;13.284;2023-03-01T03:41:34;52.32;51.07;68.38;;
61321;Laerm;17737;52.586;13.284;2023-03-01T03:44:03;52.50;51.23;57.68;;
61321;Laerm;17737;52.586;13.284;2023-03-01T03:46:31;52.33;51.08;69.50;;
61321;Laerm;17737;52.586;13.284;2023-03-01T03:48:59;53.19;51.19;68.74;;
61321;Laerm;17737;52.586;13.284;2023-03-01T03:51:27;52.24;51.10;56.39;;
61321;Laerm;17737;52.586;13.284;2023-03-01T03:53:56;53.58;51.14;60.83;;
61321;Laerm;17737;52.586;13.284;2023-03-01T03:56:24;54.24;50.85;67.31;;
61321;Laerm;17737;52.586;13.284;2023-03-01T03:58:54;52.31;51.08;56.10;;
61321;Laerm;17737;52.586;13.284;2023-03-01T04:01:22;52.27;51.10;56.94;;
61321;Laerm;17737;52.586;13.284;2023-03-01T04:03:50;53.39;51.11;59.21;;
61321;Laerm;17737;52.586;13.284;2023-03-01T04:06:21;53.18;51.19;62.54;;
61321;Laerm;17737;52.586;13.284;2023-03-01T04:08:49;53.07;51.12;67.73;;
61321;Laerm;17737;52.586;13.284;2023-03-01T04:11:19;53.62;51.21;60.35;;
61321;Laerm;17737;52.586;13.284;2023-03-01T04:13:58;52.88;51.06;59.18;;
61321;Laerm;17737;52.586;13.284;2023-03-01T04:16:26;53.46;51.01;62.73;;
61321;Laerm;17737;52.586;13.284;2023-03-01T04:18:55;52.44;51.15;68.36;;
61321;Laerm;17737;52.586;13.284;2023-03-01T04:21:26;52.60;51.15;57.03;;
61321;Laerm;17737;52.586;13.284;2023-03-01T04:23:54;54.40;51.19;60.39;;
61321;Laerm;17737;52.586;13.284;2023-03-01T04:26:23;55.26;51.39;62.98;;
61321;Laerm;17737;52.586;13.284;2023-03-01T04:28:51;54.57;51.25;69.14;;
61321;Laerm;17737;52.586;13.284;2023-03-01T04:31:21;55.76;51.33;64.66;;
61321;Laerm;17737;52.586;13.284;2023-03-01T04:33:51;55.50;51.51;60.91;;
61321;Laerm;17737;52.586;13.284;2023-03-01T04:36:21;55.50;51.27;64.81;;
61321;Laerm;17737;52.586;13.284;2023-03-01T04:38:51;55.65;51.33;66.46;;
61321;Laerm;17737;52.586;13.284;2023-03-01T04:41:21;54.08;51.20;69.65;;
61321;Laerm;17737;52.586;13.284;2023-03-01T04:43:51;53.80;51.26;60.39;;
61321;Laerm;17737;52.586;13.284;2023-03-01T04:46:20;54.22;51.14;61.02;;
61321;Laerm;17737;52.586;13.284;2023-03-01T04:48:49;54.42;51.18;62.34;;
61321;Laerm;17737;52.586;13.284;2023-03-01T04:51:17;54.70;51.11;61.78;;
61321;Laerm;17737;52.586;13.284;2023-03-01T04:53:45;54.83;51.27;60.95;;
61321;Laerm;17737;52.586;13.284;2023-03-01T04:56:14;54.94;51.04;62.38;;
61321;Laerm;17737;52.586;13.284;2023-03-01T04:58:42;55.53;51.20;67.14;;
61321;Laerm;17737;52.586;13.284;2023-03-01T05:01:15;55.82;51.40;67.59;;
61321;Laerm;17737;52.586;13.284;2023-03-01T05:03:45;55.11;51.44;63.79;;
61321;Laerm;17737;52.586;13.284;2023-03-01T05:06:14;55.28;51.80;62.82;;
61321;Laerm;17737;52.586;13.284;2023-03-01T05:08:44;56.31;51.15;64.28;;
61321;Laerm;17737;52.586;13.284;2023-03-01T05:11:12;53.72;51.13;68.78;;
61321;Laerm;17737;52.586;13.284;2023-03-01T05:13:41;56.60;51.51;63.97;;
61321;Laerm;17737;52.586;13.284;2023-03-01T05:16:09;54.81;51.31;66.92;;
61321;Laerm;17737;52.586;13.284;2023-03-01T05:18:41;54.64;51.16;62.40;;
61321;Laerm;17737;52.586;13.284;2023-03-01T05:21:12;54.63;51.16;62.21;;
61321;Laerm;17737;52.586;13.284;2023-03-01T05:23:43;56.12;51.56;66.12;;
61321;Laerm;17737;52.586;13.284;2023-03-01T05:26:11;54.28;51.37;68.85;;
61321;Laerm;17737;52.586;13.284;2023-03-01T05:28:54;55.18;51.11;63.63;;
61321;Laerm;17737;52.586;13.284;2023-03-01T05:31:25;55.96;51.36;62.91;;
61321;Laerm;17737;52.586;13.284;2023-03-01T05:33:55;54.84;50.92;62.06;;
61321;Laerm;17737;52.586;13.284;2023-03-01T05:36:23;55.57;51.27;65.08;;
61321;Laerm;17737;52.586;13.284;2023-03-01T05:38:50;56.19;51.33;62.63;;
61321;Laerm;17737;52.586;13.284;2023-03-01T05:41:18;55.73;51.30;62.99;;
61321;Laerm;17737;52.586;13.284;2023-03-01T05:43:46;53.68;51.23;59.24;;
61321;Laerm;17737;52.586;13.284;2023-03-01T05:46:14;58.48;51.88;68.37;;
61321;Laerm;17737;52.586;13.284;2023-03-01T05:48:42;55.13;51.26;63.00;;
61321;Laerm;17737;52.586;13.284;2023-03-01T05:51:12;54.49;51.31;62.74;;
61321;Laerm;17737;52.586;13.284;2023-03-01T05:53:40;56.66;51.54;63.81;;
61321;Laerm;17737;52.586;13.284;2023-03-01T05:56:08;55.29;51.57;61.92;;
61321;Laerm;17737;52.586;13.284;2023-03-01T05:58:36;55.25;50.89;61.99;;
61321;Laerm;17737;52.586;13.284;2023-03-01T06:01:05;56.89;51.46;68.83;;
61321;Laerm;17737;52.586;13.284;2023-03-01T06:03:33;54.45;51.06;61.83;;
61321;Laerm;17737;52.586;13.284;2023-03-01T06:06:01;56.91;51.47;66.36;;
61321;Laerm;17737;52.586;13.284;2023-03-01T06:08:30;55.91;51.61;62.17;;
61321;Laerm;17737;52.586;13.284;2023-03-01T06:10:58;56.92;51.19;68.99;;
61321;Laerm;17737;52.586;13.284;2023-03-01T06:13:26;56.55;51.48;65.57;;
61321;Laerm;17737;52.586;13.284;2023-03-01T06:15:54;59.00;51.49;70.02;;
61321;Laerm;17737;52.586;13.284;2023-03-01T06:18:21;56.19;51.27;63.31;;
61321;Laerm;17737;52.586;13.284;2023-03-01T06:20:53;57.46;51.79;63.24;;
61321;Laerm;17737;52.586;13.284;2023-03-01T06:23:21;56.57;51.57;63.05;;
61321;Laerm;17737;52.586;13.284;2023-03-01T06:25:51;58.79;51.90;79.05;;
61321;Laerm;17737;52.586;13.284;2023-03-01T06:28:19;57.72;51.48;66.61;;
61321;Laerm;17737;52.586;13.284;2023-03-01T06:30:48;57.06;51.53;65.42;;
61321;Laerm;17737;52.586;13.284;2023-03-01T06:33:17;56.68;51.56;63.45;;
61321;Laerm;17737;52.586;13.284;2023-03-01T06:35:46;57.08;51.65;65.17;;
61321;Laerm;17737;52.586;13.284;2023-03-01T06:38:14;56.75;51.29;63.10;;
61321;Laerm;17737;52.586;13.284;2023-03-01T06:40:45;55.09;51.13;61.19;;
61321;Laerm;17737;52.586;13.284;2023-03-01T06:43:20;55.85;51.55;61.32;;
61321;Laerm;17737;52.586;13.284;2023-03-01T06:45:47;56.25;51.38;63.46;;
61321;Laerm;17737;52.586;13.284;2023-03-01T06:48:16;57.02;51.88;63.65;;
61321;Laerm;17737;52.586;13.284;2023-03-01T06:50:44;56.91;52.28;68.80;;
61321;Laerm;17737;52.586;13.284;2023-03-01T06:53:12;56.66;51.59;67.29;;
61321;Laerm;17737;52.586;13.284;2023-03-01T06:55:40;56.81;51.32;64.42;;
61321;Laerm;17737;52.586;13.284;2023-03-01T06:58:09;56.14;51.54;63.32;;
61321;Laerm;17737;52.586;13.284;2023-03-01T07:00:39;57.90;51.78;66.14;;
61321;Laerm;17737;52.586;13.284;2023-03-01T07:03:08;56.36;51.60;63.83;;
61321;Laerm;17737;52.586;13.284;2023-03-01T07:05:36;56.13;51.43;67.89;;
61321;Laerm;17737;52.586;13.284;2023-03-01T07:08:04;57.42;51.60;65.31;;
61321;Laerm;17737;52.586;13.284;2023-03-01T07:10:33;56.21;51.46;65.68;;
61321;Laerm;17737;52.586;13.284;2023-03-01T07:13:01;56.26;51.34;62.98;;
61321;Laerm;17737;52.586;13.284;2023-03-01T07:15:29;57.17;51.38;64.77;;
61321;Laerm;17737;52.586;13.284;2023-03-01T07:17:58;55.53;51.41;62.92;;
61321;Laerm;17737;52.586;13.284;2023-03-01T07:20:26;54.86;51.57;61.95;;
61321;Laerm;17737;52.586;13.284;2023-03-01T07:22:55;56.08;51.50;63.59;;
61321;Laerm;17737;52.586;13.284;2023-03-01T07:25:25;56.70;51.37;65.02;;
61321;Laerm;17737;52.586;13.284;2023-03-01T07:27:53;55.35;51.17;63.16;;
61321;Laerm;17737;52.586;13.284;2023-03-01T07:30:22;56.61;51.94;67.95;;
61321;Laerm;17737;52.586;13.284;2023-03-01T07:32:52;55.00;51.44;60.57;;
61321;Laerm;17737;52.586;13.284;2023-03-01T07:35:24;56.22;51.35;72.71;;
61321;Laerm;17737;52.586;13.284;2023-03-01T07:37:53;57.55;51.76;65.57;;
61321;Laerm;17737;52.586;13.284;2023-03-01T07:40:21;56.99;51.52;72.97;;
61321;Laerm;17737;52.586;13.284;2023-03-01T07:42:55;56.70;51.92;63.42;;
61321;Laerm;17737;52.586;13.284;2023-03-01T07:45:23;56.24;51.48;71.54;;
61321;Laerm;17737;52.586;13.284;2023-03-01T07:47:52;56.21;51.69;67.94;;
61321;Laerm;17737;52.586;13.284;2023-03-01T07:50:23;55.56;51.33;68.96;;
61321;Laerm;17737;52.586;13.284;2023-03-01T07:52:51;56.98;51.51;65.01;;
61321;Laerm;17737;52.586;13.284;2023-03-01T07:55:19;55.24;51.14;62.67;;
61321;Laerm;17737;52.586;13.284;2023-03-01T07:57:47;55.16;51.41;63.47;;
61321;Laerm;17737;52.586;13.284;2023-03-01T08:00:15;55.46;51.21;61.64;;
61321;Laerm;17737;52.586;13.284;2023-03-01T08:02:43;60.97;52.42;82.46;;
61321;Laerm;17737;52.586;13.284;2023-03-01T08:05:11;55.82;51.37;63.04;;
61321;Laerm;17737;52.586;13.284;2023-03-01T08:07:41;55.11;51.36;61.94;;
61321;Laerm;17737;52.586;13.284;2023-03-01T08:10:11;55.69;51.74;65.56;;
61321;Laerm;17737;52.586;13.284;2023-03-01T08:12:38;57.23;51.30;66.21;;
61321;Laerm;17737;52.586;13.284;2023-03-01T08:15:08;55.28;51.48;60.99;;
61321;Laerm;17737;52.586;13.284;2023-03-01T08:17:36;56.42;51.16;63.40;;
61321;Laerm;17737;52.586;13.284;2023-03-01T08:20:05;54.28;51.22;61.02;;
61321;Laerm;17737;52.586;13.284;2023-03-01T08:22:34;55.18;51.02;63.75;;
61321;Laerm;17737;52.586;13.284;2023-03-01T08:25:04;55.07;51.27;64.90;;
61321;Laerm;17737;52.586;13.284;2023-03-01T08:27:32;55.63;51.16;63.00;;
61321;Laerm;17737;52.586;13.284;2023-03-01T08:30:00;56.03;51.27;62.87;;
61321;Laerm;17737;52.586;13.284;2023-03-01T08:32:28;55.66;51.29;66.86;;
61321;Laerm;17737;52.586;13.284;2023-03-01T08:34:56;54.61;51.34;61.00;;
61321;Laerm;17737;52.586;13.284;2023-03-01T08:37:25;54.54;51.16;63.84;;
61321;Laerm;17737;52.586;13.284;2023-03-01T08:39:53;54.35;50.92;67.12;;
61321;Laerm;17737;52.586;13.284;2023-03-01T08:42:22;55.70;51.21;66.33;;
61321;Laerm;17737;52.586;13.284;2023-03-01T08:44:50;54.92;51.26;63.09;;
61321;Laerm;17737;52.586;13.284;2023-03-01T08:47:18;56.24;51.30;67.31;;
61321;Laerm;17737;52.586;13.284;2023-03-01T08:49:46;55.07;51.17;61.01;;
61321;Laerm;17737;52.586;13.284;2023-03-01T08:52:14;55.48;51.10;62.84;;
61321;Laerm;17737;52.586;13.284;2023-03-01T08:54:42;55.06;51.13;63.45;;
61321;Laerm;17737;52.586;13.284;2023-03-01T08:57:10;54.14;50.93;60.24;;
61321;Laerm;17737;52.586;13.284;2023-03-01T08:59:40;55.65;51.24;66.33;;
61321;Laerm;17737;52.586;13.284;2023-03-01T09:02:13;55.20;51.02;66.14;;
61321;Laerm;17737;52.586;13.284;2023-03-01T09:04:41;53.76;51.03;62.07;;
61321;Laerm;17737;52.586;13.284;2023-03-01T09:07:10;55.01;51.13;60.79;;
61321;Laerm;17737;52.586;13.284;2023-03-01T09:09:38;54.48;51.17;66.01;;
61321;Laerm;17737;52.586;13.284;2023-03-01T09:12:06;56.87;50.99;80.19;;
61321;Laerm;17737;52.586;13.284;2023-03-01T09:14:34;54.39;51.10;61.28;;
61321;Laerm;17737;52.586;13.284;2023-03-01T09:17:08;54.93;51.03;62.71;;
61321;Laerm;17737;52.586;13.284;2023-03-01T09:19:36;55.17;50.98;61.64;;
61321;Laerm;17737;52.586;13.284;2023-03-01T09:22:04;53.91;51.13;61.42;;
61321;Laerm;17737;52.586;13.284;2023-03-01T09:24:32;54.67;51.41;61.89;;
61321;Laerm;17737;52.586;13.284;2023-03-01T09:27:00;55.06;51.18;62.39;;
61321;Laerm;17737;52.586;13.284;2023-03-01T09:29:29;54.13;50.93;66.43;;
61321;Laerm;17737;52.586;13.284;2023-03-01T09:31:57;54.99;51.28;62.37;;
61321;Laerm;17737;52.586;13.284;2023-03-01T09:34:27;56.12;50.94;69.29;;
61321;Laerm;17737;52.586;13.284;2023-03-01T09:36:57;53.10;50.93;66.24;;
61321;Laerm;17737;52.586;13.284;2023-03-01T09:39:28;54.83;50.74;60.63;;
61321;Laerm;17737;52.586;13.284;2023-03-01T09:42:03;55.94;51.04;63.26;;
61321;Laerm;17737;52.586;13.284;2023-03-01T09:44:38;54.30;51.23;59.55;;
61321;Laerm;17737;52.586;13.284;2023-03-01T09:47:17;54.93;50.84;65.41;;
61321;Laerm;17737;52.586;13.284;2023-03-01T09:50:00;55.51;51.21;64.26;;
61321;Laerm;17737;52.586;13.284;2023-03-01T09:52:39;54.55;51.05;60.60;;
61321;Laerm;17737;52.586;13.284;2023-03-01T09:55:14;54.89;51.05;60.13;;
61321;Laerm;17737;52.586;13.284;2023-03-01T09:57:50;54.64;51.31;61.14;;
61321;Laerm;17737;52.586;13.284;2023-03-01T10:00:35;55.17;50.92;61.45;;
61321;Laerm;17737;52.586;13.284;2023-03-01T10:03:16;54.51;51.06;60.78;;
61321;Laerm;17737;52.586;13.284;2023-03-01T10:06:00;54.83;50.99;60.92;;
61321;Laerm;17737;52.586;13.284;2023-03-01T10:08:38;55.08;51.00;63.71;;
61321;Laerm;17737;52.586;13.284;2023-03-01T10:11:20;54.17;51.10;64.78;;
61321;Laerm;17737;52.586;13.284;2023-03-01T10:13:58;55.14;51.54;65.46;;
61321;Laerm;17737;52.586;13.284;2023-03-01T10:16:40;54.98;51.06;61.31;;
61321;Laerm;17737;52.586;13.284;2023-03-01T10:19:19;55.23;51.21;61.49;;
61321;Laerm;17737;52.586;13.284;2023-03-01T10:21:51;56.32;51.21;66.29;;
61321;Laerm;17737;52.586;13.284;2023-03-01T10:24:20;54.25;50.66;61.83;;
61321;Laerm;17737;52.586;13.284;2023-03-01T10:26:56;55.22;51.07;63.41;;
61321;Laerm;17737;52.586;13.284;2023-03-01T10:29:34;54.20;50.86;60.98;;
61321;Laerm;17737;52.586;13.284;2023-03-01T10:32:05;54.29;51.06;63.21;;
61321;Laerm;17737;52.586;13.284;2023-03-01T10:34:35;53.37;50.80;59.70;;
61321;Laerm;17737;52.586;13.284;2023-03-01T10:37:12;54.64;50.90;60.17;;
61321;Laerm;17737;52.586;13.284;2023-03-01T10:39:58;53.90;50.84;62.12;;
61321;Laerm;17737;52.586;13.284;2023-03-01T10:42:33;53.98;51.16;58.49;;
61321;Laerm;17737;52.586;13.284;2023-03-01T10:45:34;55.76;51.13;61.87;;
61321;Laerm;17737;52.586;13.284;2023-03-01T10:48:08;54.82;50.68;61.67;;
61321;Laerm;17737;52.586;13.284;2023-03-01T10:50:40;54.09;50.99;60.02;;
61321;Laerm;17737;52.586;13.284;2023-03-01T10:53:24;54.12;50.84;60.19;;
61321;Laerm;17737;52.586;13.284;2023-03-01T10:56:04;55.35;50.99;62.75;;
61321;Laerm;17737;52.586;13.284;2023-03-01T10:58:35;55.44;51.11;64.83;;
61321;Laerm;17737;52.586;13.284;2023-03-01T11:01:24;54.02;50.86;59.84;;
61321;Laerm;17737;52.586;13.284;2023-03-01T11:04:11;54.45;51.07;62.08;;
61321;Laerm;17737;52.586;13.284;2023-03-01T11:06:41;54.50;50.87;62.42;;
61321;Laerm;17737;52.586;13.284;2023-03-01T11:09:20;54.39;50.99;64.87;;
61321;Laerm;17737;52.586;13.284;2023-03-01T11:11:53;54.98;50.98;63.93;;
61321;Laerm;17737;52.586;13.284;2023-03-01T11:14:24;54.54;51.06;59.87;;
61321;Laerm;17737;52.586;13.284;2023-03-01T11:17:02;54.67;50.86;62.60;;
61321;Laerm;17737;52.586;13.284;2023-03-01T11:19:31;55.38;51.05;63.48;;
61321;Laerm;17737;52.586;13.284;2023-03-01T11:22:03;53.64;50.72;64.43;;
61321;Laerm;17737;52.586;13.284;2023-03-01T11:24:47;53.63;50.81;59.15;;
61321;Laerm;17737;52.586;13.284;2023-03-01T11:27:41;54.43;50.93;59.88;;
61321;Laerm;17737;52.586;13.284;2023-03-01T11:30:20;55.27;50.89;63.03;;
61321;Laerm;17737;52.586;13.284;2023-03-01T11:33:03;54.80;51.00;65.12;;
61321;Laerm;17737;52.586;13.284;2023-03-01T11:35:37;54.70;50.81;67.99;;
61321;Laerm;17737;52.586;13.284;2023-03-01T11:38:20;55.05;51.16;62.61;;
61321;Laerm;17737;52.586;13.284;2023-03-01T11:40:57;54.14;50.47;64.76;;
61321;Laerm;17737;52.586;13.284;2023-03-01T11:43:37;53.54;50.94;64.92;;
61321;Laerm;17737;52.586;13.284;2023-03-01T11:46:45;54.47;50.50;61.76;;
61321;Laerm;17737;52.586;13.284;2023-03-01T11:52:58;54.79;51.06;63.74;;
61321;Laerm;17737;52.586;13.284;2023-03-01T11:55:58;53.65;50.93;58.60;;
61321;Laerm;17737;52.586;13.284;2023-03-01T12:02:08;55.48;50.86;65.97;;
61321;Laerm;17737;52.586;13.284;2023-03-01T12:05:06;54.71;50.74;64.97;;
61321;Laerm;17737;52.586;13.284;2023-03-01T12:07:46;54.29;50.92;61.63;;
61321;Laerm;17737;52.586;13.284;2023-03-01T12:10:26;53.40;50.72;59.56;;
61321;Laerm;17737;52.586;13.284;2023-03-01T12:13:40;54.56;51.05;60.90;;
61321;Laerm;17737;52.586;13.284;2023-03-01T12:16:30;54.07;50.66;63.63;;
61321;Laerm;17737;52.586;13.284;2023-03-01T12:19:36;54.86;51.08;64.82;;
61321;Laerm;17737;52.586;13.284;2023-03-01T12:22:23;55.05;51.06;62.74;;
61321;Laerm;17737;52.586;13.284;2023-03-01T12:25:19;55.82;50.98;73.50;;
61321;Laerm;17737;52.586;13.284;2023-03-01T12:28:07;57.85;51.02;84.45;;
61321;Laerm;17737;52.586;13.284;2023-03-01T12:31:16;53.61;50.83;63.33;;
61321;Laerm;17737;52.586;13.284;2023-03-01T12:34:11;54.31;50.73;63.62;;
61321;Laerm;17737;52.586;13.284;2023-03-01T12:37:12;55.19;51.25;62.45;;
61321;Laerm;17737;52.586;13.284;2023-03-01T12:42:49;54.14;50.83;62.16;;
61321;Laerm;17737;52.586;13.284;2023-03-01T12:45:57;54.42;51.05;61.35;;
61321;Laerm;17737;52.586;13.284;2023-03-01T12:48:42;53.90;50.69;58.12;;
61321;Laerm;17737;52.586;13.284;2023-03-01T12:51:20;55.22;51.05;61.54;;
61321;Laerm;17737;52.586;13.284;2023-03-01T12:53:53;54.33;50.89;64.51;;
61321;Laerm;17737;52.586;13.284;2023-03-01T12:56:27;54.26;50.75;60.36;;
61321;Laerm;17737;52.586;13.284;2023-03-01T12:59:06;54.19;50.76;60.36;;
61321;Laerm;17737;52.586;13.284;2023-03-01T13:01:47;54.24;50.95;61.60;;
61321;Laerm;17737;52.586;13.284;2023-03-01T13:05:06;54.94;50.96;63.86;;
61321;Laerm;17737;52.586;13.284;2023-03-01T13:07:52;54.41;50.81;61.94;;
61321;Laerm;17737;52.586;13.284;2023-03-01T13:10:31;54.79;51.06;61.60;;
61321;Laerm;17737;52.586;13.284;2023-03-01T13:13:13;54.47;50.70;60.48;;
61321;Laerm;17737;52.586;13.284;2023-03-01T13:15:41;54.87;51.28;61.54;;
61321;Laerm;17737;52.586;13.284;2023-03-01T13:18:32;53.86;50.75;61.41;;
61321;Laerm;17737;52.586;13.284;2023-03-01T13:21:03;54.84;51.02;64.11;;
61321;Laerm;17737;52.586;13.284;2023-03-01T13:23:36;53.86;50.93;65.32;;
61321;Laerm;17737;52.586;13.284;2023-03-01T13:26:10;55.66;50.86;66.12;;
61321;Laerm;17737;52.586;13.284;2023-03-01T13:28:54;54.69;50.75;62.57;;
61321;Laerm;17737;52.586;13.284;2023-03-01T13:31:59;54.54;50.81;63.90;;
61321;Laerm;17737;52.586;13.284;2023-03-01T13:34:50;55.78;51.04;64.95;;
61321;Laerm;17737;52.586;13.284;2023-03-01T13:37:31;55.56;51.10;64.10;;
61321;Laerm;17737;52.586;13.284;2023-03-01T13:40:05;54.63;50.83;62.44;;
61321;Laerm;17737;52.586;13.284;2023-03-01T13:42:42;54.06;50.72;60.25;;
61321;Laerm;17737;52.586;13.284;2023-03-01T13:45:36;53.79;50.64;64.47;;
61321;Laerm;17737;52.586;13.284;2023-03-01T13:48:15;53.94;50.95;60.05;;
61321;Laerm;17737;52.586;13.284;2023-03-01T13:50:52;55.30;50.96;63.25;;
61321;Laerm;17737;52.586;13.284;2023-03-01T13:53:25;54.70;50.82;64.30;;
61321;Laerm;17737;52.586;13.284;2023-03-01T13:55:58;53.92;50.91;59.03;;
61321;Laerm;17737;52.586;13.284;2023-03-01T13:58:30;55.81;51.00;62.95;;
61321;Laerm;17737;52.586;13.284;2023-03-01T14:01:02;53.35;51.14;62.68;;
61321;Laerm;17737;52.586;13.284;2023-03-01T14:03:32;53.76;51.09;59.43;;
61321;Laerm;17737;52.586;13.284;2023-03-01T14:06:07;54.91;51.03;64.22;;
61321;Laerm;17737;52.586;13.284;2023-03-01T14:08:50;55.00;51.19;66.01;;
61321;Laerm;17737;52.586;13.284;2023-03-01T14:11:52;55.63;51.14;63.44;;
61321;Laerm;17737;52.586;13.284;2023-03-01T14:14:38;55.97;51.12;63.56;;
61321;Laerm;17737;52.586;13.284;2023-03-01T14:17:33;54.67;50.87;61.16;;